Aérodrome :
LOGIN :

S'inscrire | Disclaimer

   EN    FR    IT 

 










Légende :    VFR   VFR Marginal   IFR   IFR Intensif   IFR Très Intensif
Visi : 
Plafond : 
>= 8 km
>= 3000ft
5 à 8 km
1000 à 3000 ft
1500m à 5 km
500 à 1000 ft
800 à 1500m
200 à 500 ft
< 800m
< 200 ft
Symboles :   Orages  Brouillard  Fortes neiges  Fortes précipitations  Vent > 20 kt
SIGMETs :   Divers  Orages  Givrage  Turbulence  Onde Orograph.  Cendres Volcan.






- Altitude de l'aérodrome : 157 ft
- Code IATA : LIL


LFQQ - Lille Lesquin

DERNIER METAR :
  • 290400Z AUTO 24010KT 9999 -DZ BKN012/// OVC017/// ///CB 14/13 Q1011 TEMPO 4000 RADZ BKN007 OVC012

METARs EXPIRÉS :
  • 290330Z AUTO 22010KT 9999 BKN010 OVC015 14/13 Q1011 TEMPO 4000 RADZ
  • 290300Z AUTO 21012KT 9999 OVC010 14/13 Q1011 TEMPO 4000 RADZ BKN007 BKN012 BKN025TCU
  • 290230Z AUTO 21010KT 9999 BKN011 BKN017 OVC025 15/14 Q1011 TEMPO 4000 RADZ BKN007 BKN012 BKN025TCU
  • 290200Z AUTO 21010KT 9999 SCT009/// BKN014/// OVC020/// ///TCU 15/14 Q1011 TEMPO 2000 -SHRA BKN007 BKN012 BKN025TCU
  • 290130Z AUTO 22010KT 9999 OVC009 15/14 Q1011 TEMPO 2000 -SHRA BKN007 BKN012 BKN025TCU
  • 290100Z AUTO 22010KT 190V250 9999 BKN008/// OVC012/// ///TCU 15/14 Q1012 TEMPO 2000 -SHRA
  • 290030Z AUTO 21012KT 9999 BKN009 OVC016 15/14 Q1012 TEMPO 2000 -SHRA BKN007 BKN012 BKN025TCU
  • 290000Z AUTO 20011KT 7000 -RA BKN008 OVC012 15/14 Q1012 TEMPO 2000 -SHRA BKN007 BKN012 BKN025TCU
  • 282330Z AUTO 21009KT 9999 -RADZ SCT012/// BKN021/// BKN029/// ///TCU 15/14 Q1012 TEMPO 2000 -SHRA BKN007 BKN012 BKN025TCU

TAF TAF LFQQ
Valide du 29 à 00h jusqu'au 30 à 06h UTC


282300Z 2900/3006 22010KT 9999 OVC020
TEMPO 2900/2906 4000 RADZ BKN007 OVC012
PROB30
TEMPO 2900/2904 2000 -SHRA BKN007 BKN012 BKN025TCU
TEMPO 2906/2912 4000 RADZ BKN014 BKN020
BECMG 2912/2914 SCT030
TEMPO 3000/3006 4000 BR BKN004
ATIS : +33 3 20 16 19 54



MET'MAP, la Météo Aéronautique d'un coup d'oeil ! - Copyright ORBIFLY Décembre 2007 - Disclaimer

ORBIFLY MET'MAP TEAM :

Programmation & Développement : Alexandra Zaïnal
Sur une idée originale de : Baudouin d'Aumeries
Soutien technique & logistique : Manuel Goepfert
Assistance : Marc-Olivier Méhu




SOURCES & CREDITS :

   NOAA